createdAt,value
2018-09-22T00:02:50.442Z,82.37
2018-09-22T00:07:43.823Z,82.07
2018-09-22T00:12:37.386Z,81.63
2018-09-22T00:17:31.187Z,81.68
2018-09-22T00:22:24.527Z,81.33
2018-09-22T00:27:18.239Z,81.55
2018-09-22T00:32:11.595Z,81.91
2018-09-22T00:37:05.145Z,81.32
2018-09-22T00:41:59.317Z,81.16
2018-09-22T00:46:53.241Z,81.14
2018-09-22T00:51:46.468Z,80.91
2018-09-22T00:56:39.665Z,81.72
2018-09-22T01:01:33.983Z,81.71
2018-09-22T01:06:27.887Z,81.59
2018-09-22T01:11:21.096Z,81.19
2018-09-22T01:16:15.453Z,80.76
2018-09-22T01:21:08.769Z,81.44
2018-09-22T01:26:02.078Z,81.57
2018-09-22T01:30:55.996Z,81.19
2018-09-22T01:35:49.305Z,81.51
2018-09-22T01:40:42.577Z,81.78
2018-09-22T01:45:38.496Z,81.99
2018-09-22T01:50:31.785Z,82.24
2018-09-22T01:55:26.053Z,82.54
2018-09-22T02:00:19.453Z,81.84
2018-09-22T02:05:13.550Z,83.10
2018-09-22T02:10:06.972Z,83.35
2018-09-22T02:15:00.761Z,82.88
2018-09-22T02:19:54.007Z,82.72
2018-09-22T02:24:47.350Z,82.08
2018-09-22T02:29:40.593Z,81.05
2018-09-22T02:34:33.854Z,81.60
2018-09-22T02:39:27.401Z,81.30
2018-09-22T02:44:20.872Z,82.26
2018-09-22T02:49:14.182Z,82.45
2018-09-22T02:54:08.002Z,82.07
2018-09-22T02:59:01.327Z,82.56
2018-09-22T03:03:55.078Z,81.73
2018-09-22T03:08:48.384Z,81.98
2018-09-22T03:13:42.078Z,83.21
2018-09-22T03:18:36.251Z,83.42
2018-09-22T03:23:29.747Z,82.24
2018-09-22T03:28:23.020Z,82.54
2018-09-22T03:33:17.075Z,82.89
2018-09-22T03:38:10.433Z,82.02
2018-09-22T03:43:04.230Z,82.85
2018-09-22T03:47:57.493Z,82.65
2018-09-22T03:52:51.117Z,81.89
2018-09-22T03:57:44.436Z,82.33
2018-09-22T04:02:37.625Z,81.09
2018-09-22T04:07:30.897Z,80.79
2018-09-22T04:12:24.166Z,80.45
2018-09-22T04:17:17.383Z,80.28
2018-09-22T04:22:10.480Z,79.62
2018-09-22T04:27:04.743Z,80.08
2018-09-22T04:31:57.908Z,80.96
2018-09-22T04:36:51.533Z,80.93
2018-09-22T04:41:46.411Z,81.43
2018-09-22T04:46:39.678Z,80.82
2018-09-22T04:51:32.822Z,80.02
2018-09-22T04:56:26.041Z,80.10
2018-09-22T05:01:19.780Z,79.62
2018-09-22T05:06:12.941Z,78.22
2018-09-22T05:11:06.434Z,77.70
2018-09-22T05:15:59.746Z,76.91
2018-09-22T05:20:54.858Z,76.26
2018-09-22T05:25:48.649Z,75.90
2018-09-22T05:30:41.855Z,75.31
2018-09-22T05:35:34.986Z,74.60
2018-09-22T05:40:28.882Z,74.11
2018-09-22T05:45:22.199Z,74.10
2018-09-22T05:50:15.429Z,74.17
2018-09-22T05:55:08.786Z,73.27
2018-09-22T06:00:02.062Z,73.30
2018-09-22T06:04:58.338Z,73.05
2018-09-22T06:09:51.597Z,71.95
2018-09-22T06:14:44.818Z,71.39
2018-09-22T06:19:38.251Z,71.07
2018-09-22T06:24:31.811Z,70.55
2018-09-22T06:29:25.150Z,69.83
2018-09-22T06:34:18.402Z,69.22
2018-09-22T06:39:12.398Z,70.53
2018-09-22T06:44:05.781Z,71.62
2018-09-22T06:48:59.025Z,70.90
2018-09-22T06:53:52.273Z,71.78
2018-09-22T06:58:45.584Z,72.46
2018-09-22T07:03:38.970Z,71.71
2018-09-22T07:08:33.130Z,71.99
2018-09-22T07:13:26.386Z,69.84
2018-09-22T07:18:20.381Z,69.19
2018-09-22T07:23:15.876Z,69.07
2018-09-22T07:28:10.192Z,67.97
2018-09-22T07:33:03.500Z,67.85
2018-09-22T07:37:56.678Z,65.43
2018-09-22T07:42:50.792Z,65.77
2018-09-22T07:47:44.072Z,64.54
2018-09-22T07:52:38.085Z,64.65
2018-09-22T07:57:39.690Z,64.77
2018-09-22T08:02:33.492Z,64.23
2018-09-22T08:07:31.378Z,62.49
2018-09-22T08:12:25.799Z,63.33
2018-09-22T08:17:19.398Z,63.61
2018-09-22T08:22:14.632Z,62.90
2018-09-22T08:27:08.553Z,62.07
2018-09-22T08:32:01.931Z,62.38
2018-09-22T08:36:55.655Z,62.61
2018-09-22T08:41:48.750Z,61.83
2018-09-22T08:46:41.830Z,61.34
2018-09-22T08:51:35.355Z,61.17
2018-09-22T08:56:28.713Z,60.05
2018-09-22T09:01:22.205Z,60.10
2018-09-22T09:06:15.547Z,59.78
2018-09-22T09:11:10.053Z,59.78
2018-09-22T09:16:11.960Z,57.88
2018-09-22T09:21:05.660Z,58.22
2018-09-22T09:25:59.345Z,58.74
2018-09-22T09:30:52.840Z,58.09
2018-09-22T09:35:47.021Z,56.02
2018-09-22T09:40:40.239Z,56.95
2018-09-22T09:45:34.336Z,57.16
2018-09-22T09:50:27.583Z,56.33
2018-09-22T09:55:20.817Z,56.32
2018-09-22T10:00:17.064Z,55.83
2018-09-22T10:05:10.378Z,55.17
2018-09-22T10:10:03.752Z,54.58
2018-09-22T10:14:57.341Z,54.10
2018-09-22T10:19:50.853Z,54.19
2018-09-22T10:24:44.410Z,53.74
2018-09-22T10:29:37.616Z,52.78
2018-09-22T10:34:31.085Z,53.19
2018-09-22T10:39:28.133Z,52.30
2018-09-22T10:44:21.511Z,50.91
2018-09-22T10:49:15.291Z,51.56
2018-09-22T10:54:08.513Z,52.44
2018-09-22T10:59:02.196Z,51.22
2018-09-22T11:03:55.477Z,50.37
2018-09-22T11:08:48.640Z,50.22
2018-09-22T11:13:41.904Z,50.38
2018-09-22T11:18:35.507Z,49.77
2018-09-22T11:23:29.202Z,48.83
2018-09-22T11:28:25.347Z,48.78
2018-09-22T11:33:19.860Z,49.38
2018-09-22T11:38:13.623Z,49.44
2018-09-22T11:43:07.081Z,48.81
2018-09-22T11:48:05.452Z,48.01
2018-09-22T11:52:59.274Z,48.26
2018-09-22T12:02:55.808Z,47.18
2018-09-22T12:07:49.226Z,48.37
2018-09-22T12:12:42.916Z,48.02
2018-09-22T12:17:36.049Z,47.98
2018-09-22T12:22:30.337Z,47.79
2018-09-22T12:27:23.800Z,45.58
2018-09-22T12:32:17.541Z,45.60
2018-09-22T12:37:10.935Z,45.34
2018-09-22T12:42:04.711Z,45.46
2018-09-22T12:46:57.881Z,46.57
2018-09-22T12:51:52.449Z,46.31
2018-09-22T12:56:45.888Z,44.43
2018-09-22T13:01:39.287Z,44.90
2018-09-22T13:06:32.814Z,44.68
2018-09-22T13:11:26.114Z,43.61
2018-09-22T13:16:19.398Z,43.05
2018-09-22T13:21:13.461Z,42.44
2018-09-22T13:26:07.898Z,43.85
2018-09-22T13:31:01.170Z,43.47
2018-09-22T13:35:54.632Z,43.74
2018-09-22T13:40:49.217Z,42.94
2018-09-22T13:45:42.476Z,42.29
2018-09-22T13:50:37.276Z,43.05
2018-09-22T13:55:30.528Z,42.04
2018-09-22T14:00:23.709Z,42.39
2018-09-22T14:05:18.108Z,41.59
2018-09-22T14:10:11.466Z,41.03
2018-09-22T14:15:04.974Z,40.19
2018-09-22T14:19:59.515Z,41.40
2018-09-22T14:24:52.937Z,42.25
2018-09-22T14:29:46.262Z,42.61
2018-09-22T14:34:39.486Z,41.36
2018-09-22T14:39:32.807Z,41.99
2018-09-22T14:44:26.377Z,40.62
2018-09-22T14:49:20.675Z,40.43
2018-09-22T14:54:14.269Z,40.64
2018-09-22T14:59:07.570Z,40.55
2018-09-22T15:04:01.239Z,40.95
2018-09-22T15:08:54.902Z,40.55
2018-09-22T15:13:48.122Z,40.94
2018-09-22T15:18:41.612Z,41.78
2018-09-22T15:23:42.468Z,41.91
2018-09-22T15:28:35.998Z,41.17
2018-09-22T15:33:29.387Z,43.04
2018-09-22T15:38:22.609Z,43.69
2018-09-22T15:43:16.133Z,43.44
2018-09-22T15:48:09.414Z,44.18
2018-09-22T15:53:03.362Z,45.31
2018-09-22T15:57:57.101Z,45.94
2018-09-22T16:02:52.105Z,47.06
2018-09-22T16:07:45.276Z,48.30
2018-09-22T16:12:38.452Z,50.03
2018-09-22T16:17:32.857Z,50.75
2018-09-22T16:22:26.793Z,52.27
2018-09-22T16:27:20.431Z,53.87
2018-09-22T16:32:13.990Z,54.89
2018-09-22T16:37:11.654Z,54.53
2018-09-22T16:42:05.597Z,54.30
2018-09-22T16:46:58.864Z,54.59
2018-09-22T16:51:53.265Z,55.52
2018-09-22T16:56:48.098Z,54.50
2018-09-22T17:01:41.377Z,55.67
2018-09-22T17:06:34.818Z,56.55
2018-09-22T17:11:28.563Z,56.77
2018-09-22T17:16:24.241Z,58.32
2018-09-22T17:21:19.567Z,57.25
2018-09-22T17:26:15.271Z,58.36
2018-09-22T17:31:08.445Z,58.22
2018-09-22T17:36:02.338Z,57.65
2018-09-22T17:40:56.226Z,57.40
2018-09-22T17:45:49.529Z,57.65
2018-09-22T17:50:43.409Z,58.47
2018-09-22T17:55:38.892Z,57.00
2018-09-22T18:00:32.607Z,56.53
2018-09-22T18:05:27.025Z,56.30
2018-09-22T18:10:20.291Z,57.86
2018-09-22T18:15:13.623Z,58.83
2018-09-22T18:20:06.947Z,58.86
2018-09-22T18:25:02.286Z,59.06
2018-09-22T18:29:55.638Z,58.30
2018-09-22T18:34:49.202Z,58.43
2018-09-22T18:39:45.298Z,57.97
2018-09-22T18:44:39.075Z,56.67
2018-09-22T18:49:32.496Z,57.01
2018-09-22T18:54:25.898Z,56.13
2018-09-22T18:59:19.176Z,56.53
2018-09-22T19:04:12.707Z,57.88
2018-09-22T19:09:07.804Z,58.29
2018-09-22T19:14:06.492Z,57.96
2018-09-22T19:19:09.088Z,58.37
2018-09-22T19:24:05.706Z,58.56
2018-09-22T19:29:14.565Z,58.97
2018-09-22T19:34:11.270Z,59.82
2018-09-22T19:39:16.878Z,59.41
2018-09-22T19:44:14.481Z,58.51
2018-09-22T19:49:15.521Z,58.64
2018-09-22T19:54:09.712Z,58.89
2018-09-22T19:59:03.010Z,58.40
2018-09-22T20:03:56.255Z,58.64
2018-09-22T20:08:49.663Z,58.60
2018-09-22T20:13:43.482Z,58.39
2018-09-22T20:18:36.905Z,58.11
2018-09-22T20:23:31.857Z,58.14
2018-09-22T20:28:27.973Z,58.03
2018-09-22T20:33:22.503Z,58.45
2018-09-22T20:38:18.663Z,58.75
2018-09-22T20:43:12.823Z,58.69
2018-09-22T20:48:06.709Z,58.65
2018-09-22T20:53:00.245Z,57.74
2018-09-22T20:57:53.775Z,58.28
2018-09-22T21:02:51.041Z,57.15
2018-09-22T21:07:45.818Z,57.99
2018-09-22T21:12:40.300Z,57.55
2018-09-22T21:17:33.630Z,56.55
2018-09-22T21:22:27.547Z,56.86
2018-09-22T21:27:24.401Z,56.82
2018-09-22T21:32:17.717Z,57.09
2018-09-22T21:37:13.004Z,56.44
2018-09-22T21:42:06.126Z,57.39
2018-09-22T21:47:00.349Z,58.16
2018-09-22T21:51:53.762Z,56.01
2018-09-22T21:56:46.950Z,54.17
2018-09-22T22:01:41.888Z,53.75
2018-09-22T22:06:35.535Z,55.32
2018-09-22T22:11:29.164Z,54.29
2018-09-22T22:16:24.400Z,54.83
2018-09-22T22:21:17.817Z,56.43
2018-09-22T22:26:12.216Z,55.78
2018-09-22T22:31:06.031Z,56.38
2018-09-22T22:35:59.252Z,57.58
2018-09-22T22:40:54.132Z,58.87
2018-09-22T22:45:48.072Z,58.94
2018-09-22T22:50:41.329Z,59.41
2018-09-22T22:55:35.219Z,58.91
2018-09-22T23:00:28.479Z,59.09
2018-09-22T23:05:21.961Z,59.15
2018-09-22T23:10:16.261Z,59.63
2018-09-22T23:15:09.627Z,60.17
2018-09-22T23:20:04.134Z,59.96
2018-09-22T23:25:00.999Z,59.57
2018-09-22T23:29:56.061Z,59.62
2018-09-22T23:34:49.510Z,60.30
2018-09-22T23:39:42.791Z,60.44
2018-09-22T23:44:36.158Z,60.26
2018-09-22T23:49:29.972Z,59.91
2018-09-22T23:54:24.756Z,59.99
2018-09-22T23:59:19.569Z,60.44
